Time;durP1;ratioP1;P1;durP2;ratioP2;P2;SDS_P1;SDS_P2;PMS_P1;PMS_P2;Temp;Humidity;BMP_temperature;BMP_pressure;BME280_temperature;BME280_humidity;BME280_pressure;Samples;Min_cycle;Max_cycle;Signal;HPM_P1;HPM_P2
2021/01/31 00:02:27;;;;;;;29.70;6.50;;;;;;;;;;5051185;28;20033;-73
2021/01/31 00:05:31;;;;;;;23.23;4.15;;;;;;;;;;5051926;28;20060;-73
2021/01/31 00:08:36;;;;;;;16.98;3.50;;;;;;;;;;5052332;28;20048;-73
2021/01/31 00:11:41;;;;;;;13.82;3.05;;;;;;;;;;5051995;28;20495;-73
2021/01/31 00:14:45;;;;;;;15.55;3.55;;;;;;;;;;5052015;28;20041;-73
2021/01/31 00:17:49;;;;;;;29.75;5.03;;;;;;;;;;5052168;28;20040;-73
2021/01/31 00:20:55;;;;;;;25.52;4.50;;;;;;;;;;5051936;28;20044;-73
2021/01/31 00:23:59;;;;;;;19.58;4.82;;;;;;;;;;5051427;28;20079;-72
2021/01/31 00:27:03;;;;;;;26.20;3.85;;;;;;;;;;5051876;28;20033;-72
2021/01/31 00:30:13;;;;;;;20.35;3.75;;;;;;;;;;5052059;28;20039;-72
2021/01/31 00:33:18;;;;;;;22.38;3.45;;;;;;;;;;5051174;28;20043;-72
2021/01/31 00:36:23;;;;;;;14.52;3.03;;;;;;;;;;5051518;28;20048;-73
2021/01/31 00:39:27;;;;;;;23.25;3.40;;;;;;;;;;5051460;28;20041;-72
2021/01/31 00:42:32;;;;;;;29.30;3.25;;;;;;;;;;5050507;28;20037;-71
2021/01/31 00:45:36;;;;;;;23.08;3.40;;;;;;;;;;5051540;28;20048;-71
2021/01/31 00:48:41;;;;;;;17.98;3.03;;;;;;;;;;5051335;28;20481;-72
2021/01/31 00:51:49;;;;;;;17.20;2.95;;;;;;;;;;5050173;28;20060;-71
2021/01/31 00:54:55;;;;;;;16.10;3.20;;;;;;;;;;5050669;28;20043;-72
2021/01/31 00:57:59;;;;;;;20.35;3.80;;;;;;;;;;5050157;28;20042;-72
2021/01/31 01:01:04;;;;;;;25.63;3.65;;;;;;;;;;5050496;28;20041;-72
2021/01/31 01:04:08;;;;;;;23.23;3.55;;;;;;;;;;5050223;28;20045;-72
2021/01/31 01:07:26;;;;;;;16.70;3.40;;;;;;;;;;5050502;28;20041;-71
2021/01/31 01:10:32;;;;;;;23.08;4.82;;;;;;;;;;5050215;28;20044;-71
2021/01/31 01:13:36;;;;;;;24.00;3.72;;;;;;;;;;5051070;28;20041;-72
2021/01/31 01:16:41;;;;;;;18.33;3.55;;;;;;;;;;5051238;28;20044;-71
2021/01/31 01:19:45;;;;;;;25.10;3.78;;;;;;;;;;5051007;28;20033;-71
2021/01/31 01:22:49;;;;;;;24.38;4.53;;;;;;;;;;5050996;28;20043;-72
2021/01/31 01:25:54;;;;;;;21.48;3.78;;;;;;;;;;5050016;28;20055;-72
2021/01/31 01:28:59;;;;;;;15.25;4.28;;;;;;;;;;5050822;28;20386;-71
2021/01/31 01:32:03;;;;;;;19.50;4.50;;;;;;;;;;5050693;28;20398;-71
2021/01/31 01:35:08;;;;;;;14.52;3.17;;;;;;;;;;5052690;28;20041;-71
2021/01/31 01:38:12;;;;;;;19.40;3.13;;;;;;;;;;5054965;28;20037;-72
2021/01/31 01:41:18;;;;;;;26.05;3.67;;;;;;;;;;5054832;28;20512;-72
2021/01/31 01:44:22;;;;;;;22.52;3.60;;;;;;;;;;5053824;28;20049;-72
2021/01/31 01:47:27;;;;;;;16.83;3.38;;;;;;;;;;5054876;28;20037;-72
2021/01/31 01:50:36;;;;;;;23.83;3.50;;;;;;;;;;5054643;28;20033;-72
2021/01/31 01:53:41;;;;;;;11.75;2.80;;;;;;;;;;5054511;28;20049;-72
2021/01/31 01:56:52;;;;;;;34.58;3.72;;;;;;;;;;5054699;28;20037;-71
2021/01/31 01:59:56;;;;;;;15.88;2.90;;;;;;;;;;5054811;28;20037;-72
2021/01/31 02:03:03;;;;;;;13.05;3.10;;;;;;;;;;5053792;28;20041;-72
2021/01/31 02:06:09;;;;;;;14.25;2.35;;;;;;;;;;5054624;28;20080;-72
2021/01/31 02:09:13;;;;;;;18.35;4.03;;;;;;;;;;5054566;28;20037;-72
2021/01/31 02:12:21;;;;;;;19.88;3.55;;;;;;;;;;5054490;28;20037;-72
2021/01/31 02:15:26;;;;;;;14.38;2.85;;;;;;;;;;5054428;28;20044;-72
2021/01/31 02:18:36;;;;;;;22.27;3.08;;;;;;;;;;5054271;28;20039;-72
2021/01/31 02:21:54;;;;;;;15.00;3.40;;;;;;;;;;5054459;28;20456;-72
2021/01/31 02:25:17;;;;;;;17.17;3.13;;;;;;;;;;5053866;28;20056;-73
2021/01/31 02:28:33;;;;;;;13.18;2.90;;;;;;;;;;5054318;28;20041;-73
2021/01/31 02:31:56;;;;;;;16.08;3.45;;;;;;;;;;5054000;28;20507;-72
2021/01/31 02:35:07;;;;;;;11.00;2.75;;;;;;;;;;5054077;28;20044;-72
2021/01/31 02:38:26;;;;;;;20.58;3.47;;;;;;;;;;5053963;28;20036;-72
2021/01/31 02:41:57;;;;;;;15.02;4.15;;;;;;;;;;5053972;28;20037;-72
2021/01/31 02:45:10;;;;;;;20.23;3.03;;;;;;;;;;5053664;28;20120;-71
2021/01/31 02:48:14;;;;;;;13.13;2.90;;;;;;;;;;5053854;28;20041;-72
2021/01/31 02:51:26;;;;;;;10.23;2.90;;;;;;;;;;5053757;28;20059;-71
2021/01/31 02:54:42;;;;;;;14.25;2.95;;;;;;;;;;5053615;28;20041;-71
2021/01/31 02:57:49;;;;;;;16.10;3.08;;;;;;;;;;5053717;28;20038;-71
2021/01/31 03:00:56;;;;;;;11.73;2.85;;;;;;;;;;5052639;28;20042;-72
2021/01/31 03:04:02;;;;;;;11.57;2.70;;;;;;;;;;5053151;28;20045;-73
2021/01/31 03:07:18;;;;;;;13.55;2.92;;;;;;;;;;5053051;28;20033;-73
2021/01/31 03:10:26;;;;;;;11.75;2.58;;;;;;;;;;5052540;28;20056;-71
2021/01/31 03:13:45;;;;;;;11.07;1.90;;;;;;;;;;5053341;28;20032;-71
2021/01/31 03:16:52;;;;;;;9.85;2.60;;;;;;;;;;5053269;28;20127;-71
2021/01/31 03:19:56;;;;;;;11.98;2.85;;;;;;;;;;5053340;28;20481;-71
2021/01/31 03:23:16;;;;;;;7.88;1.90;;;;;;;;;;5052801;28;20033;-71
2021/01/31 03:26:28;;;;;;;11.05;2.50;;;;;;;;;;5053332;28;20624;-72
2021/01/31 03:29:33;;;;;;;10.38;2.33;;;;;;;;;;5052695;28;20037;-72
2021/01/31 03:32:57;;;;;;;10.18;2.20;;;;;;;;;;5053179;28;20037;-72
2021/01/31 03:36:03;;;;;;;9.63;2.88;;;;;;;;;;5052758;28;20050;-72
2021/01/31 03:39:07;;;;;;;17.70;3.25;;;;;;;;;;5052643;28;20481;-72
2021/01/31 03:42:13;;;;;;;16.23;3.60;;;;;;;;;;5052946;28;20393;-72
2021/01/31 03:45:20;;;;;;;16.35;4.00;;;;;;;;;;5052314;28;20654;-72
2021/01/31 03:48:26;;;;;;;24.15;4.60;;;;;;;;;;5052722;28;20033;-72
2021/01/31 03:51:34;;;;;;;22.70;4.40;;;;;;;;;;5052247;28;20037;-72
2021/01/31 03:54:39;;;;;;;21.15;4.78;;;;;;;;;;5052682;28;20176;-72
2021/01/31 03:57:46;;;;;;;19.42;4.75;;;;;;;;;;5051762;28;20036;-73
2021/01/31 04:00:57;;;;;;;26.20;5.25;;;;;;;;;;5052550;28;20044;-72
2021/01/31 04:04:07;;;;;;;26.48;5.32;;;;;;;;;;5052004;28;20049;-72
2021/01/31 04:07:13;;;;;;;27.85;5.40;;;;;;;;;;5051691;28;20040;-72
2021/01/31 04:10:22;;;;;;;28.02;5.32;;;;;;;;;;5052513;28;20036;-72
2021/01/31 04:13:26;;;;;;;26.20;5.80;;;;;;;;;;5052392;28;20362;-72
2021/01/31 04:16:37;;;;;;;32.25;6.78;;;;;;;;;;5052214;28;20041;-72
2021/01/31 04:19:41;;;;;;;27.92;5.70;;;;;;;;;;5052289;28;20509;-71
2021/01/31 04:22:46;;;;;;;22.80;4.50;;;;;;;;;;5052026;28;20049;-72
2021/01/31 04:25:51;;;;;;;22.42;5.30;;;;;;;;;;5039363;28;20052;-72
2021/01/31 04:28:55;;;;;;;21.55;4.57;;;;;;;;;;5051053;28;20040;-72
2021/01/31 04:31:59;;;;;;;20.52;5.32;;;;;;;;;;5051959;28;20040;-72
2021/01/31 04:35:05;;;;;;;29.70;5.97;;;;;;;;;;5051384;28;20037;-73
2021/01/31 04:38:10;;;;;;;30.48;6.28;;;;;;;;;;5051615;28;20041;-72
2021/01/31 04:41:16;;;;;;;27.00;5.57;;;;;;;;;;5051857;28;20040;-72
2021/01/31 04:44:21;;;;;;;32.80;5.57;;;;;;;;;;5050467;28;20059;-72
2021/01/31 04:47:27;;;;;;;33.30;5.05;;;;;;;;;;5051813;28;20112;-72
2021/01/31 04:50:33;;;;;;;21.10;4.30;;;;;;;;;;5051580;28;20049;-72
2021/01/31 04:53:38;;;;;;;27.05;4.65;;;;;;;;;;5051102;28;20394;-72
2021/01/31 04:56:48;;;;;;;21.42;4.68;;;;;;;;;;5051623;28;20045;-72
2021/01/31 04:59:52;;;;;;;29.55;4.20;;;;;;;;;;5051376;28;20040;-72
2021/01/31 05:03:01;;;;;;;17.13;4.20;;;;;;;;;;5051456;28;20048;-73
2021/01/31 05:06:12;;;;;;;19.15;4.68;;;;;;;;;;5051618;28;20045;-72
2021/01/31 05:09:19;;;;;;;18.87;4.23;;;;;;;;;;5050812;28;20049;-72
2021/01/31 05:12:28;;;;;;;21.85;4.70;;;;;;;;;;5051036;28;20040;-72
2021/01/31 05:15:38;;;;;;;31.33;5.60;;;;;;;;;;5050135;28;20404;-72
2021/01/31 05:18:46;;;;;;;29.20;5.45;;;;;;;;;;5050480;28;20085;-72
2021/01/31 05:21:50;;;;;;;24.90;5.03;;;;;;;;;;5051006;28;20044;-72
2021/01/31 05:24:56;;;;;;;26.35;5.15;;;;;;;;;;5050639;28;20533;-72
2021/01/31 05:28:00;;;;;;;23.27;4.70;;;;;;;;;;5050839;28;20042;-72
2021/01/31 05:31:05;;;;;;;15.35;4.00;;;;;;;;;;5051110;28;20037;-72
2021/01/31 05:34:10;;;;;;;15.20;3.80;;;;;;;;;;5050991;28;20060;-72
2021/01/31 05:37:26;;;;;;;20.08;4.10;;;;;;;;;;5050998;28;20064;-72
2021/01/31 05:40:32;;;;;;;23.50;5.53;;;;;;;;;;5050755;28;20053;-72
2021/01/31 05:43:36;;;;;;;25.38;4.60;;;;;;;;;;5050176;28;20045;-72
2021/01/31 05:46:46;;;;;;;12.23;2.88;;;;;;;;;;5050084;28;20045;-71
2021/01/31 05:49:53;;;;;;;13.48;3.20;;;;;;;;;;5051027;28;20033;-72
2021/01/31 05:52:58;;;;;;;12.15;2.72;;;;;;;;;;5049529;28;20053;-72
2021/01/31 05:56:21;;;;;;;16.95;3.80;;;;;;;;;;5050728;28;20037;-72
2021/01/31 05:59:37;;;;;;;18.13;3.28;;;;;;;;;;5050067;28;20393;-72
2021/01/31 06:02:41;;;;;;;16.75;3.15;;;;;;;;;;5050721;28;20052;-72
2021/01/31 06:05:46;;;;;;;19.63;3.40;;;;;;;;;;5050332;28;20404;-71
2021/01/31 06:08:55;;;;;;;16.25;3.05;;;;;;;;;;5050697;28;20380;-71
2021/01/31 06:12:08;;;;;;;24.73;3.60;;;;;;;;;;5050844;28;20174;-71
2021/01/31 06:15:15;;;;;;;24.27;4.32;;;;;;;;;;5050398;28;20515;-71
2021/01/31 06:18:21;;;;;;;20.33;3.95;;;;;;;;;;5049920;28;20048;-71
2021/01/31 06:21:35;;;;;;;24.15;5.28;;;;;;;;;;5052568;28;20037;-71
2021/01/31 06:24:47;;;;;;;20.50;5.55;;;;;;;;;;5054236;28;20053;-71
2021/01/31 06:28:14;;;;;;;26.80;6.63;;;;;;;;;;5042048;28;20032;-71
2021/01/31 06:31:25;;;;;;;30.10;7.07;;;;;;;;;;5053927;28;20503;-71
2021/01/31 06:34:29;;;;;;;23.77;5.00;;;;;;;;;;5053825;28;20397;-71
2021/01/31 06:37:53;;;;;;;20.60;4.20;;;;;;;;;;5053812;28;20045;-71
2021/01/31 06:41:10;;;;;;;22.20;4.35;;;;;;;;;;5054118;28;20056;-71
2021/01/31 06:44:22;;;;;;;20.42;4.22;;;;;;;;;;5053633;28;20049;-71
2021/01/31 06:47:45;;;;;;;19.48;3.75;;;;;;;;;;5053703;28;20045;-71
2021/01/31 06:50:52;;;;;;;16.33;3.83;;;;;;;;;;5053891;28;20053;-71
2021/01/31 06:54:29;;;;;;;28.40;4.75;;;;;;;;;;5053460;28;20429;-71
2021/01/31 06:57:53;;;;;;;17.35;4.10;;;;;;;;;;5052293;28;20045;-71
2021/01/31 07:01:16;;;;;;;25.80;4.43;;;;;;;;;;5058299;28;20038;-72
2021/01/31 07:04:23;;;;;;;18.55;4.28;;;;;;;;;;5053284;28;20037;-71
2021/01/31 07:07:36;;;;;;;17.80;3.58;;;;;;;;;;5053564;28;20511;-72
2021/01/31 07:10:40;;;;;;;20.13;4.03;;;;;;;;;;5052424;28;20227;-71
2021/01/31 07:13:59;;;;;;;20.02;4.35;;;;;;;;;;5053672;28;20048;-72
2021/01/31 07:17:12;;;;;;;20.80;4.75;;;;;;;;;;5053363;28;20402;-72
2021/01/31 07:20:22;;;;;;;21.08;5.90;;;;;;;;;;5052413;28;20056;-72
2021/01/31 07:23:29;;;;;;;22.15;6.10;;;;;;;;;;5052993;28;20047;-72
2021/01/31 07:26:42;;;;;;;22.60;6.18;;;;;;;;;;5052930;28;20040;-71
2021/01/31 07:29:49;;;;;;;23.50;6.63;;;;;;;;;;5053175;28;20037;-71
2021/01/31 07:32:57;;;;;;;23.00;6.18;;;;;;;;;;5051980;28;20036;-71
2021/01/31 07:36:07;;;;;;;19.40;6.57;;;;;;;;;;5052349;28;20044;-72
2021/01/31 07:39:15;;;;;;;25.35;6.50;;;;;;;;;;5053029;28;20504;-72
2021/01/31 07:42:20;;;;;;;28.00;8.35;;;;;;;;;;5053065;28;20048;-71
2021/01/31 07:45:26;;;;;;;27.00;9.73;;;;;;;;;;5052686;28;20406;-71
2021/01/31 07:48:30;;;;;;;26.63;7.50;;;;;;;;;;5052888;28;20040;-71
2021/01/31 07:51:54;;;;;;;34.72;14.45;;;;;;;;;;5052767;28;20052;-70
2021/01/31 07:55:16;;;;;;;24.23;8.18;;;;;;;;;;5051438;28;20056;-71
2021/01/31 07:58:20;;;;;;;26.42;8.45;;;;;;;;;;5052790;28;20044;-72
2021/01/31 08:01:43;;;;;;;33.05;7.88;;;;;;;;;;5052432;28;20044;-73
2021/01/31 08:04:48;;;;;;;28.05;7.18;;;;;;;;;;5051946;28;20048;-73
2021/01/31 08:08:08;;;;;;;22.33;7.40;;;;;;;;;;5052284;28;20397;-73
2021/01/31 08:11:21;;;;;;;28.33;7.80;;;;;;;;;;5052379;28;20037;-73
2021/01/31 08:14:44;;;;;;;25.73;8.80;;;;;;;;;;5052083;28;20512;-73
2021/01/31 08:18:08;;;;;;;33.95;9.18;;;;;;;;;;5052237;28;20033;-73
2021/01/31 08:21:33;;;;;;;32.90;14.05;;;;;;;;;;5052131;28;20056;-73
2021/01/31 08:24:56;;;;;;;25.25;10.50;;;;;;;;;;5051869;28;20047;-73
2021/01/31 08:28:03;;;;;;;26.23;9.27;;;;;;;;;;5051832;28;20043;-73
2021/01/31 08:31:12;;;;;;;29.45;8.25;;;;;;;;;;5051840;28;20033;-72
2021/01/31 08:34:17;;;;;;;25.52;8.57;;;;;;;;;;5051924;28;20047;-73
2021/01/31 08:37:28;;;;;;;33.53;9.18;;;;;;;;;;5051688;28;20044;-72
2021/01/31 08:40:32;;;;;;;29.17;9.00;;;;;;;;;;5051014;28;20041;-72
2021/01/31 08:43:36;;;;;;;26.75;10.07;;;;;;;;;;5051437;28;20039;-73
2021/01/31 08:47:07;;;;;;;26.95;9.60;;;;;;;;;;5051761;28;20188;-72
2021/01/31 08:50:16;;;;;;;25.88;11.32;;;;;;;;;;5051768;28;20036;-73
2021/01/31 08:53:20;;;;;;;40.75;18.05;;;;;;;;;;5051068;28;20064;-73
2021/01/31 08:56:27;;;;;;;36.70;22.25;;;;;;;;;;5051409;28;20052;-72
2021/01/31 08:59:45;;;;;;;40.33;16.02;;;;;;;;;;5051656;28;20051;-73
2021/01/31 09:02:49;;;;;;;32.63;12.75;;;;;;;;;;5051311;28;20044;-72
2021/01/31 09:05:53;;;;;;;23.77;10.25;;;;;;;;;;5051081;28;20056;-73
2021/01/31 09:08:58;;;;;;;38.35;11.48;;;;;;;;;;5051008;28;20048;-73
2021/01/31 09:12:04;;;;;;;26.73;10.32;;;;;;;;;;5051273;28;20051;-72
2021/01/31 09:15:26;;;;;;;26.20;10.18;;;;;;;;;;5051314;28;20056;-72
2021/01/31 09:18:30;;;;;;;31.88;10.43;;;;;;;;;;5050984;28;20416;-72
2021/01/31 09:21:35;;;;;;;24.48;9.98;;;;;;;;;;5050878;28;20044;-72
2021/01/31 09:24:41;;;;;;;40.85;10.52;;;;;;;;;;5050688;28;20044;-72
2021/01/31 09:28:03;;;;;;;38.83;9.95;;;;;;;;;;5051119;28;20396;-72
2021/01/31 09:31:09;;;;;;;30.60;11.15;;;;;;;;;;5050932;28;20041;-72
2021/01/31 09:34:13;;;;;;;39.35;12.07;;;;;;;;;;5050492;28;20036;-72
2021/01/31 09:37:31;;;;;;;35.92;14.20;;;;;;;;;;5050915;28;20036;-72
2021/01/31 09:40:36;;;;;;;26.70;8.27;;;;;;;;;;5050917;28;20052;-73
2021/01/31 09:43:41;;;;;;;30.52;6.35;;;;;;;;;;5050667;28;20535;-73
2021/01/31 09:46:45;;;;;;;22.20;7.20;;;;;;;;;;5050836;28;20049;-72
2021/01/31 09:49:51;;;;;;;23.85;7.15;;;;;;;;;;5050853;28;20033;-72
2021/01/31 09:52:57;;;;;;;22.65;8.98;;;;;;;;;;5050350;28;20071;-72
2021/01/31 09:56:03;;;;;;;21.42;6.93;;;;;;;;;;5051313;28;20033;-72
2021/01/31 09:59:22;;;;;;;19.80;6.00;;;;;;;;;;5054647;28;20037;-72
2021/01/31 10:02:31;;;;;;;21.60;5.82;;;;;;;;;;5054724;28;20040;-73
2021/01/31 10:05:36;;;;;;;21.60;9.60;;;;;;;;;;5054636;28;20412;-73
2021/01/31 10:09:06;;;;;;;26.38;7.75;;;;;;;;;;5054784;28;20045;-73
2021/01/31 10:12:28;;;;;;;16.05;5.60;;;;;;;;;;5054427;28;20396;-72
2021/01/31 10:15:39;;;;;;;17.15;4.78;;;;;;;;;;5054731;28;20464;-73
2021/01/31 10:18:43;;;;;;;14.65;4.93;;;;;;;;;;5054608;28;20157;-73
2021/01/31 10:21:48;;;;;;;19.55;6.60;;;;;;;;;;5054110;28;20048;-72
2021/01/31 10:24:53;;;;;;;15.45;4.07;;;;;;;;;;5053756;28;20077;-73
2021/01/31 10:27:58;;;;;;;9.55;3.70;;;;;;;;;;5054065;28;20037;-73
2021/01/31 10:31:02;;;;;;;10.70;3.47;;;;;;;;;;5053878;28;20041;-73
2021/01/31 10:34:37;;;;;;;16.17;5.00;;;;;;;;;;5053947;28;20576;-73
2021/01/31 10:37:41;;;;;;;19.17;5.63;;;;;;;;;;5054127;28;20051;-73
2021/01/31 10:40:45;;;;;;;27.73;6.93;;;;;;;;;;5053965;28;20041;-73
2021/01/31 10:44:01;;;;;;;16.60;5.90;;;;;;;;;;5053915;28;20045;-73
2021/01/31 10:47:05;;;;;;;21.48;6.28;;;;;;;;;;5053997;28;20041;-73
2021/01/31 10:50:10;;;;;;;19.38;6.03;;;;;;;;;;5053968;28;20408;-73
2021/01/31 10:53:15;;;;;;;17.45;4.95;;;;;;;;;;5053313;28;20065;-73
2021/01/31 10:56:19;;;;;;;26.67;6.10;;;;;;;;;;5053380;28;20033;-73
2021/01/31 10:59:23;;;;;;;22.05;5.70;;;;;;;;;;5052766;28;20532;-73
2021/01/31 11:02:28;;;;;;;15.90;4.10;;;;;;;;;;5052876;28;20045;-73
2021/01/31 11:05:32;;;;;;;13.55;4.20;;;;;;;;;;5053387;28;20048;-73
2021/01/31 11:08:36;;;;;;;12.60;3.70;;;;;;;;;;5040169;28;20041;-73
2021/01/31 11:11:41;;;;;;;15.48;4.28;;;;;;;;;;5053292;28;20503;-73
2021/01/31 11:14:45;;;;;;;18.50;5.95;;;;;;;;;;5053426;28;20412;-73
2021/01/31 11:17:49;;;;;;;23.98;5.07;;;;;;;;;;5053381;28;20048;-73
2021/01/31 11:20:55;;;;;;;24.08;5.97;;;;;;;;;;5053302;28;20041;-73
2021/01/31 11:23:59;;;;;;;20.80;4.43;;;;;;;;;;5053241;28;20041;-73
2021/01/31 11:27:04;;;;;;;20.08;6.88;;;;;;;;;;5053104;28;20056;-73
2021/01/31 11:30:08;;;;;;;22.25;5.60;;;;;;;;;;5052800;28;20029;-73
2021/01/31 11:33:13;;;;;;;19.83;6.53;;;;;;;;;;5052673;28;20078;-73
2021/01/31 11:36:18;;;;;;;20.38;7.10;;;;;;;;;;5052925;28;20478;-73
2021/01/31 11:39:25;;;;;;;27.80;6.68;;;;;;;;;;5052734;28;20052;-74
2021/01/31 11:42:30;;;;;;;22.23;6.25;;;;;;;;;;5052572;28;20036;-74
2021/01/31 11:45:34;;;;;;;26.50;6.38;;;;;;;;;;5052723;28;20069;-74
2021/01/31 11:48:38;;;;;;;32.40;5.90;;;;;;;;;;5040637;28;20033;-74
2021/01/31 11:51:43;;;;;;;32.03;7.30;;;;;;;;;;5052672;28;20049;-74
2021/01/31 11:54:47;;;;;;;26.13;7.15;;;;;;;;;;5052636;28;20056;-74
2021/01/31 11:57:52;;;;;;;25.30;7.07;;;;;;;;;;5051494;28;20380;-75
2021/01/31 12:00:56;;;;;;;33.72;9.10;;;;;;;;;;5052488;28;20049;-74
2021/01/31 12:04:00;;;;;;;29.40;8.60;;;;;;;;;;5052219;28;20049;-74
2021/01/31 12:07:08;;;;;;;29.42;8.35;;;;;;;;;;5051594;28;20040;-74
2021/01/31 12:10:13;;;;;;;31.60;7.47;;;;;;;;;;5052181;28;20033;-74
2021/01/31 12:13:17;;;;;;;22.45;6.32;;;;;;;;;;5052218;28;20549;-74
2021/01/31 12:16:22;;;;;;;16.80;6.38;;;;;;;;;;5052377;28;20044;-74
2021/01/31 12:19:26;;;;;;;19.60;5.85;;;;;;;;;;5051617;28;20049;-74
2021/01/31 12:22:31;;;;;;;22.75;5.63;;;;;;;;;;5051938;28;20029;-74
2021/01/31 12:25:35;;;;;;;23.10;5.85;;;;;;;;;;5051818;28;20045;-74
2021/01/31 12:28:40;;;;;;;28.75;7.03;;;;;;;;;;5052012;28;20044;-74
2021/01/31 12:31:45;;;;;;;17.58;5.50;;;;;;;;;;5051773;28;20041;-74
2021/01/31 12:34:49;;;;;;;29.88;5.95;;;;;;;;;;5051653;28;20051;-74
2021/01/31 12:37:53;;;;;;;25.45;5.60;;;;;;;;;;5051912;28;20037;-74
2021/01/31 12:40:57;;;;;;;28.58;6.00;;;;;;;;;;5051597;28;20040;-74
2021/01/31 12:44:02;;;;;;;20.65;6.68;;;;;;;;;;5051525;28;20037;-74
2021/01/31 12:47:09;;;;;;;19.73;6.07;;;;;;;;;;5051651;28;20052;-74
2021/01/31 12:50:15;;;;;;;28.42;7.32;;;;;;;;;;5051523;28;20037;-74
2021/01/31 12:53:22;;;;;;;29.75;7.63;;;;;;;;;;5051028;28;20057;-74
2021/01/31 12:56:26;;;;;;;28.27;7.80;;;;;;;;;;5051412;28;20496;-74
2021/01/31 12:59:30;;;;;;;30.58;8.40;;;;;;;;;;5050565;28;20057;-74
2021/01/31 13:02:37;;;;;;;28.48;8.77;;;;;;;;;;5051452;28;20045;-75
2021/01/31 13:05:41;;;;;;;35.75;10.68;;;;;;;;;;5049979;28;20045;-74
2021/01/31 13:08:46;;;;;;;28.00;8.43;;;;;;;;;;5050992;28;20036;-74
2021/01/31 13:11:50;;;;;;;28.80;8.63;;;;;;;;;;5050972;28;20048;-74
2021/01/31 13:14:54;;;;;;;18.13;6.15;;;;;;;;;;5049800;28;20041;-74
2021/01/31 13:18:01;;;;;;;30.27;7.20;;;;;;;;;;5050712;28;20037;-74
2021/01/31 13:21:06;;;;;;;25.92;7.32;;;;;;;;;;5050697;28;20392;-75
2021/01/31 13:24:13;;;;;;;24.17;7.28;;;;;;;;;;5051198;28;20049;-75
2021/01/31 13:27:17;;;;;;;30.60;8.05;;;;;;;;;;5050012;28;20041;-73
2021/01/31 13:30:22;;;;;;;28.58;9.80;;;;;;;;;;5050001;28;20029;-73
2021/01/31 13:33:26;;;;;;;30.42;9.63;;;;;;;;;;5051027;28;20047;-73
2021/01/31 13:36:30;;;;;;;40.88;11.75;;;;;;;;;;5050677;28;20480;-74
2021/01/31 13:39:35;;;;;;;35.47;12.68;;;;;;;;;;5050583;28;20062;-74
2021/01/31 13:42:39;;;;;;;40.22;13.23;;;;;;;;;;5050828;28;20052;-75
2021/01/31 13:45:44;;;;;;;46.45;15.52;;;;;;;;;;5050373;28;20310;-74
2021/01/31 13:48:48;;;;;;;41.58;12.80;;;;;;;;;;5049852;28;20044;-74
2021/01/31 13:51:52;;;;;;;32.00;9.50;;;;;;;;;;5050383;28;20048;-74
2021/01/31 13:54:56;;;;;;;52.97;18.98;;;;;;;;;;5050480;28;20041;-74
2021/01/31 13:58:02;;;;;;;31.20;10.90;;;;;;;;;;5050926;28;20040;-74
2021/01/31 14:01:06;;;;;;;37.45;9.52;;;;;;;;;;5050647;28;20040;-75
2021/01/31 14:04:11;;;;;;;28.02;9.88;;;;;;;;;;5050526;28;20048;-74
2021/01/31 14:07:15;;;;;;;67.20;42.33;;;;;;;;;;5050891;28;20075;-74
2021/01/31 14:10:20;;;;;;;38.30;10.35;;;;;;;;;;5050526;28;20048;-74
2021/01/31 14:13:24;;;;;;;40.17;9.63;;;;;;;;;;5050716;28;20048;-74
2021/01/31 14:16:29;;;;;;;39.38;10.27;;;;;;;;;;5050601;28;20044;-73
2021/01/31 14:19:33;;;;;;;35.78;12.30;;;;;;;;;;5050315;28;20044;-73
2021/01/31 14:22:37;;;;;;;42.13;9.82;;;;;;;;;;5050321;28;20035;-74
2021/01/31 14:25:42;;;;;;;33.03;8.65;;;;;;;;;;5050239;28;20136;-74
2021/01/31 14:28:46;;;;;;;36.17;10.00;;;;;;;;;;5050305;28;20032;-74
2021/01/31 14:31:51;;;;;;;31.13;9.40;;;;;;;;;;5050662;28;20491;-74
2021/01/31 14:34:55;;;;;;;32.22;8.52;;;;;;;;;;5050231;28;20040;-74
2021/01/31 14:38:00;;;;;;;35.35;9.73;;;;;;;;;;5050208;28;20037;-74
2021/01/31 14:41:04;;;;;;;26.45;8.68;;;;;;;;;;5050254;28;20484;-73
2021/01/31 14:44:08;;;;;;;29.58;9.02;;;;;;;;;;5053926;28;20041;-74
2021/01/31 14:47:13;;;;;;;30.13;8.60;;;;;;;;;;5053642;28;20044;-74
2021/01/31 14:50:18;;;;;;;30.70;8.00;;;;;;;;;;5053761;28;20032;-74
2021/01/31 14:53:22;;;;;;;30.10;8.13;;;;;;;;;;5053269;28;20057;-74
2021/01/31 14:56:27;;;;;;;31.63;9.02;;;;;;;;;;5054115;28;20046;-74
2021/01/31 14:59:31;;;;;;;27.30;10.60;;;;;;;;;;5053783;28;20041;-74
2021/01/31 15:02:35;;;;;;;34.20;7.25;;;;;;;;;;5053559;28;20048;-74
2021/01/31 15:05:42;;;;;;;30.08;9.23;;;;;;;;;;5053587;28;20076;-73
2021/01/31 15:08:46;;;;;;;41.50;10.98;;;;;;;;;;5053494;28;20377;-74
2021/01/31 15:11:51;;;;;;;27.48;8.00;;;;;;;;;;5053437;28;20491;-73
2021/01/31 15:14:55;;;;;;;34.60;9.00;;;;;;;;;;5053467;28;20040;-73
2021/01/31 15:18:00;;;;;;;31.17;10.38;;;;;;;;;;5053221;28;20041;-74
2021/01/31 15:21:04;;;;;;;27.08;9.27;;;;;;;;;;5053260;28;20507;-74
2021/01/31 15:24:08;;;;;;;33.58;8.00;;;;;;;;;;5053130;28;20044;-73
2021/01/31 15:27:13;;;;;;;23.33;6.13;;;;;;;;;;5054315;28;20048;-73
2021/01/31 15:30:22;;;;;;;17.08;5.95;;;;;;;;;;5053056;28;20036;-74
2021/01/31 15:33:27;;;;;;;17.40;7.28;;;;;;;;;;5052847;28;20072;-74
2021/01/31 15:36:31;;;;;;;17.48;6.25;;;;;;;;;;5053110;28;20045;-73
2021/01/31 15:39:35;;;;;;;15.43;6.20;;;;;;;;;;5052707;28;20041;-73
2021/01/31 15:42:40;;;;;;;21.80;6.60;;;;;;;;;;5052880;28;20033;-74
2021/01/31 15:45:44;;;;;;;16.17;4.35;;;;;;;;;;5052872;28;20064;-73
2021/01/31 15:48:48;;;;;;;19.48;5.60;;;;;;;;;;5052652;28;20036;-74
2021/01/31 15:51:53;;;;;;;20.77;6.05;;;;;;;;;;5052445;28;20496;-74
2021/01/31 15:54:57;;;;;;;25.08;7.65;;;;;;;;;;5052026;28;20048;-74
2021/01/31 15:58:02;;;;;;;22.52;9.07;;;;;;;;;;5052261;28;20032;-74
2021/01/31 16:01:06;;;;;;;19.90;7.88;;;;;;;;;;5052330;28;20040;-74
2021/01/31 16:04:11;;;;;;;24.55;9.35;;;;;;;;;;5052075;28;20033;-74
2021/01/31 16:07:24;;;;;;;26.35;10.05;;;;;;;;;;5052506;28;20049;-74
2021/01/31 16:10:30;;;;;;;31.73;10.43;;;;;;;;;;5052052;28;20040;-74
2021/01/31 16:13:35;;;;;;;25.45;8.82;;;;;;;;;;5052144;28;20040;-74
2021/01/31 16:16:43;;;;;;;25.70;9.35;;;;;;;;;;5052058;28;20038;-74
2021/01/31 16:19:47;;;;;;;26.80;9.48;;;;;;;;;;5052115;28;20052;-73
2021/01/31 16:22:52;;;;;;;23.15;8.95;;;;;;;;;;5051876;28;20032;-74
2021/01/31 16:25:56;;;;;;;30.27;10.02;;;;;;;;;;5051996;28;20056;-73
2021/01/31 16:29:03;;;;;;;39.85;12.10;;;;;;;;;;5051726;28;20425;-74
2021/01/31 16:32:10;;;;;;;25.00;9.75;;;;;;;;;;5051740;28;20056;-74
2021/01/31 16:35:15;;;;;;;25.50;10.07;;;;;;;;;;5051803;28;20048;-73
2021/01/31 16:38:20;;;;;;;30.23;11.18;;;;;;;;;;5051751;28;20040;-73
2021/01/31 16:41:45;;;;;;;22.25;11.02;;;;;;;;;;5050763;28;20040;-73
2021/01/31 16:44:49;;;;;;;32.60;13.85;;;;;;;;;;5051394;28;20104;-73
2021/01/31 16:47:54;;;;;;;32.95;15.63;;;;;;;;;;5051646;28;20056;-73
2021/01/31 16:50:59;;;;;;;36.50;17.52;;;;;;;;;;5051452;28;20039;-73
2021/01/31 16:54:04;;;;;;;33.60;15.45;;;;;;;;;;5051392;28;20401;-73
2021/01/31 16:57:11;;;;;;;36.08;17.02;;;;;;;;;;5051227;28;20539;-73
2021/01/31 17:00:17;;;;;;;36.85;17.40;;;;;;;;;;5051105;28;20044;-73
2021/01/31 17:03:24;;;;;;;44.75;23.60;;;;;;;;;;5051329;28;20063;-73
2021/01/31 17:06:30;;;;;;;51.33;23.52;;;;;;;;;;5050980;28;20408;-73
2021/01/31 17:09:34;;;;;;;49.60;25.75;;;;;;;;;;5051775;28;20412;-73
2021/01/31 17:12:39;;;;;;;47.13;26.08;;;;;;;;;;5051032;28;20408;-73
2021/01/31 17:15:44;;;;;;;44.42;23.00;;;;;;;;;;5051337;28;20052;-73
2021/01/31 17:18:49;;;;;;;39.08;22.40;;;;;;;;;;5051282;28;20071;-73
2021/01/31 17:21:53;;;;;;;37.65;20.40;;;;;;;;;;5050821;28;20048;-73
2021/01/31 17:24:58;;;;;;;40.60;19.55;;;;;;;;;;5050859;28;20048;-74
2021/01/31 17:28:03;;;;;;;44.15;20.48;;;;;;;;;;5051017;28;20480;-74
2021/01/31 17:31:08;;;;;;;38.15;19.55;;;;;;;;;;5050035;28;20035;-73
2021/01/31 17:34:12;;;;;;;52.17;26.63;;;;;;;;;;5051094;28;20059;-74
2021/01/31 17:37:18;;;;;;;32.20;18.33;;;;;;;;;;5050842;28;20060;-73
2021/01/31 17:40:24;;;;;;;36.35;18.95;;;;;;;;;;5050766;28;20059;-73
2021/01/31 17:43:28;;;;;;;38.40;17.65;;;;;;;;;;5050870;28;20596;-73
2021/01/31 17:46:32;;;;;;;42.05;19.17;;;;;;;;;;5050607;28;20071;-73
2021/01/31 17:49:37;;;;;;;45.58;24.30;;;;;;;;;;5050721;28;20036;-73
2021/01/31 17:52:42;;;;;;;52.38;24.50;;;;;;;;;;5050685;28;20072;-73
2021/01/31 17:55:46;;;;;;;44.33;23.65;;;;;;;;;;5050952;28;20066;-73
2021/01/31 17:58:51;;;;;;;39.88;17.90;;;;;;;;;;5050575;28;20032;-73
2021/01/31 18:01:55;;;;;;;34.35;16.80;;;;;;;;;;5050425;28;20040;-73
2021/01/31 18:05:05;;;;;;;29.80;13.93;;;;;;;;;;5049533;28;20044;-73
2021/01/31 18:08:09;;;;;;;35.38;12.45;;;;;;;;;;5050579;28;20044;-73
2021/01/31 18:11:15;;;;;;;30.48;10.60;;;;;;;;;;5050460;28;20436;-73
2021/01/31 18:14:19;;;;;;;28.27;8.32;;;;;;;;;;5050549;28;20043;-73
2021/01/31 18:17:24;;;;;;;20.98;8.73;;;;;;;;;;5052336;28;20040;-73
2021/01/31 18:20:40;;;;;;;16.23;5.90;;;;;;;;;;5054298;28;20040;-73
2021/01/31 18:23:46;;;;;;;14.95;5.45;;;;;;;;;;5054282;28;20516;-73
2021/01/31 18:26:50;;;;;;;21.73;7.07;;;;;;;;;;5053941;28;20053;-73